Time;durP1;ratioP1;P1;durP2;ratioP2;P2;SDS_P1;SDS_P2;PMS_P1;PMS_P2;Temp;Humidity;BMP_temperature;BMP_pressure;BME280_temperature;BME280_humidity;BME280_pressure;Samples;Min_cycle;Max_cycle;Signal;HPM_P1;HPM_P2
2023/10/07 00:00:59;;;;;;;4.45;1.15;;;;;;;3.79;86.33;98763.75;5067317;28;20048;-42
2023/10/07 00:03:26;;;;;;;2.22;0.75;;;;;;;3.80;86.34;98754.31;5071800;28;20044;-46
2023/10/07 00:06:00;;;;;;;1.67;0.70;;;;;;;3.81;86.57;98761.16;5085202;28;20040;-41
2023/10/07 00:08:27;;;;;;;0.68;0.50;;;;;;;3.75;86.81;98753.56;5083873;28;20040;-42
2023/10/07 00:10:58;;;;;;;1.52;0.63;;;;;;;3.72;86.63;98751.91;5080611;28;20036;-41
2023/10/07 00:13:30;;;;;;;1.05;0.60;;;;;;;3.68;86.61;98740.00;5067817;28;20048;-43
2023/10/07 00:15:56;;;;;;;1.88;0.68;;;;;;;3.70;86.58;98742.53;5073481;28;20510;-42
2023/10/07 00:18:25;;;;;;;1.23;0.70;;;;;;;3.67;87.04;98728.03;5071102;28;20123;-42
2023/10/07 00:20:54;;;;;;;2.30;0.43;;;;;;;3.66;87.39;98736.63;5086315;28;20032;-41
2023/10/07 00:23:21;;;;;;;2.78;0.60;;;;;;;3.67;87.14;98727.19;5077271;28;20044;-43
2023/10/07 00:25:50;;;;;;;1.85;1.00;;;;;;;3.55;87.12;98724.91;5068867;28;20052;-41
2023/10/07 00:28:34;;;;;;;;;;;;;;;3.54;87.15;98731.75;5067912;28;20404;-41
2023/10/07 00:31:03;;;;;;;1.90;0.50;;;;;;;3.46;87.03;98723.34;5077557;28;20019;-43
2023/10/07 00:39:07;;;;;;;3.58;0.73;;;;;;;3.49;87.38;98715.59;5071093;28;20487;-41
2023/10/07 00:41:39;;;;;;;2.40;0.65;;;;;;;3.47;87.29;98714.75;5088832;28;20051;-42
2023/10/07 00:47:14;;;;;;;1.02;0.63;;;;;;;3.40;87.56;98705.53;5065864;28;20036;-41
2023/10/07 00:55:24;;;;;;;1.92;0.75;;;;;;;3.38;87.47;98697.00;5022881;28;20424;-42
2023/10/07 00:58:03;;;;;;;3.00;0.68;;;;;;;3.06;87.36;98641.16;5033311;28;20539;-43
2023/10/07 01:00:48;;;;;;;;;;;;;;;3.21;87.37;98684.50;5066442;28;20127;-42
2023/10/07 01:03:31;;;;;;;1.33;0.52;;;;;;;3.09;87.20;98671.09;5048939;28;19920;-49
2023/10/07 01:08:35;;;;;;;3.45;0.90;;;;;;;3.10;87.58;98660.75;5048210;28;20032;-42
2023/10/07 01:13:57;;;;;;;3.08;0.52;;;;;;;3.17;88.08;98649.50;5052477;28;20567;-41
2023/10/07 01:21:50;;;;;;;1.02;0.45;;;;;;;2.92;88.25;98608.09;5086928;28;20044;-43
2023/10/07 01:24:23;;;;;;;2.22;0.60;;;;;;;2.84;88.27;98602.25;5070869;28;20033;-43
2023/10/07 01:26:50;;;;;;;0.82;0.50;;;;;;;3.07;88.39;98649.72;5074650;28;20507;-44
2023/10/07 01:29:20;;;;;;;0.98;0.55;;;;;;;2.96;88.29;98645.66;5085753;28;20043;-41
2023/10/07 01:31:59;;;;;;;1.95;0.93;;;;;;;2.90;87.94;98635.50;5088333;28;20059;-42
2023/10/07 01:34:35;;;;;;;1.25;0.60;;;;;;;2.87;87.59;98633.00;5073238;28;20044;-43
2023/10/07 01:37:03;;;;;;;1.92;0.88;;;;;;;2.83;87.61;98622.81;5050094;28;20029;-41
2023/10/07 01:39:31;;;;;;;1.52;0.60;;;;;;;2.88;87.50;98631.25;5066982;28;20418;-43
2023/10/07 01:42:01;;;;;;;1.85;0.85;;;;;;;2.84;87.33;98629.63;5066817;28;20073;-43
2023/10/07 01:44:32;;;;;;;1.65;0.82;;;;;;;2.73;87.19;98593.09;5081867;28;20051;-43
2023/10/07 01:46:58;;;;;;;3.35;0.80;;;;;;;2.85;86.89;98616.78;5074109;28;20047;-42
2023/10/07 01:49:24;;;;;;;2.15;1.00;;;;;;;2.69;86.93;98623.09;5092037;28;20043;-43
2023/10/07 01:51:52;;;;;;;1.42;0.80;;;;;;;2.63;86.78;98618.09;5090765;28;20415;-42
2023/10/07 01:54:20;;;;;;;2.08;0.77;;;;;;;2.56;87.05;98613.97;5068997;28;20040;-47
2023/10/07 01:56:48;;;;;;;1.70;0.97;;;;;;;2.33;87.70;98581.06;5079316;28;20037;-43
2023/10/07 02:01:43;;;;;;;1.33;1.20;;;;;;;2.53;88.26;98614.84;5055378;28;20036;-43
2023/10/07 02:04:28;;;;;;;1.40;0.80;;;;;;;2.44;88.26;98603.94;5077478;28;20048;-42
2023/10/07 02:06:55;;;;;;;1.88;0.82;;;;;;;2.40;88.57;98600.59;5051747;28;20040;-42
2023/10/07 02:09:25;;;;;;;2.35;0.98;;;;;;;2.34;89.23;98590.44;5068441;28;20036;-42
2023/10/07 02:12:03;;;;;;;1.90;1.02;;;;;;;2.33;89.18;98598.16;5078331;28;20043;-45
2023/10/07 02:14:31;;;;;;;3.05;1.15;;;;;;;2.30;89.36;98593.94;5061889;28;20562;-42
2023/10/07 02:16:57;;;;;;;2.20;1.00;;;;;;;2.26;89.70;98586.31;5086481;28;20040;-42
2023/10/07 02:19:28;;;;;;;1.80;0.95;;;;;;;2.05;89.70;98572.19;5090387;28;20418;-41
2023/10/07 02:22:21;;;;;;;4.97;1.20;;;;;;;2.15;89.87;98583.13;5076248;28;20135;-44
2023/10/07 02:25:02;;;;;;;4.35;1.40;;;;;;;2.13;90.00;98583.16;5075304;28;20732;-43
2023/10/07 02:27:41;;;;;;;2.03;0.90;;;;;;;2.07;90.04;98584.09;5088036;28;20198;-42
2023/10/07 02:30:16;;;;;;;1.58;0.80;;;;;;;2.10;90.67;98578.91;5091458;28;20048;-42
2023/10/07 02:32:43;;;;;;;1.65;0.80;;;;;;;2.06;90.74;98582.41;5073045;28;20039;-43
2023/10/07 02:35:09;;;;;;;1.45;0.88;;;;;;;2.07;90.35;98578.97;5090030;28;20589;-42
2023/10/07 02:37:38;;;;;;;3.15;0.98;;;;;;;2.02;90.31;98567.97;5089696;28;20075;-42
2023/10/07 02:43:07;;;;;;;3.10;0.85;;;;;;;1.93;90.54;98546.78;5058051;28;19964;-41
2023/10/07 02:45:42;;;;;;;2.80;1.08;;;;;;;1.89;90.49;98555.38;5073556;28;20518;-42
2023/10/07 02:48:10;;;;;;;2.83;0.90;;;;;;;1.94;90.77;98551.88;5086900;28;20051;-43
2023/10/07 02:50:42;;;;;;;3.00;1.13;;;;;;;2.05;90.68;98559.34;5088182;28;20422;-43
2023/10/07 02:53:15;;;;;;;3.30;1.35;;;;;;;1.82;90.63;98523.91;5089774;28;20040;-42
2023/10/07 02:55:54;;;;;;;1.92;0.90;;;;;;;1.63;90.57;98505.44;5069629;28;20045;-42
2023/10/07 02:58:48;;;;;;;2.42;0.85;;;;;;;1.79;90.54;98533.34;5080002;28;20069;-42
2023/10/07 03:01:18;;;;;;;1.85;0.98;;;;;;;1.79;90.72;98525.66;5089605;28;20055;-43
2023/10/07 03:03:50;;;;;;;2.60;0.90;;;;;;;1.95;90.68;98552.72;5085710;28;20494;-42
2023/10/07 03:06:19;;;;;;;1.95;0.98;;;;;;;1.97;90.54;98544.13;5069533;28;20040;-43
2023/10/07 03:11:20;;;;;;;3.53;1.08;;;;;;;1.98;89.91;98521.94;5084387;28;20043;-42
2023/10/07 03:13:49;;;;;;;2.03;0.88;;;;;;;2.05;89.73;98516.63;5057719;28;20562;-42
2023/10/07 03:19:06;;;;;;;;;;;;;;;2.15;89.49;98514.72;5089748;28;20127;-43
2023/10/07 03:24:11;;;;;;;4.28;0.90;;;;;;;2.11;89.35;98488.31;5056260;28;20044;-41
2023/10/07 03:26:40;;;;;;;2.92;1.15;;;;;;;2.05;88.78;98473.06;5068735;28;20040;-42
2023/10/07 03:29:06;;;;;;;2.80;1.00;;;;;;;2.08;89.23;98475.59;5070149;28;20047;-42
2023/10/07 03:31:47;;;;;;;5.85;0.90;;;;;;;2.07;89.19;98466.19;5071883;28;20043;-42
2023/10/07 03:34:14;;;;;;;3.80;1.17;;;;;;;2.07;89.22;98455.09;5073222;28;20038;-42
2023/10/07 03:41:48;;;;;;;2.75;1.10;;;;;;;2.20;88.95;98441.13;5069739;28;20097;-43
2023/10/07 03:44:19;;;;;;;2.65;1.38;;;;;;;2.20;88.80;98448.81;5069612;28;20050;-43
2023/10/07 03:46:47;;;;;;;1.83;0.93;;;;;;;2.22;88.91;98429.16;5069814;28;20068;-41
2023/10/07 03:49:15;;;;;;;1.40;0.75;;;;;;;2.23;88.99;98433.41;5067930;28;20044;-44
2023/10/07 03:51:45;;;;;;;1.63;0.90;;;;;;;2.05;89.22;98391.03;5072071;28;20032;-42
2023/10/07 03:54:29;;;;;;;6.93;1.58;;;;;;;1.76;89.01;98331.88;5088603;28;20043;-41
2023/10/07 03:56:56;;;;;;;1.95;1.00;;;;;;;2.01;89.02;98356.09;5068520;28;20048;-43
2023/10/07 03:59:23;;;;;;;2.28;0.85;;;;;;;2.25;89.12;98395.72;5068340;28;20481;-43
2023/10/07 04:01:53;;;;;;;1.63;1.05;;;;;;;2.40;89.05;98403.13;5050980;28;20040;-43
2023/10/07 04:04:24;;;;;;;1.98;0.80;;;;;;;2.44;88.58;98397.03;5052659;28;20048;-43
2023/10/07 04:06:51;;;;;;;1.42;0.90;;;;;;;2.57;88.50;98400.16;5086949;28;20191;-43
2023/10/07 04:09:18;;;;;;;2.13;0.98;;;;;;;2.67;87.93;98385.41;5087285;28;20058;-42
2023/10/07 04:11:49;;;;;;;1.17;0.77;;;;;;;2.68;86.94;98374.25;5069817;28;20087;-42
2023/10/07 04:14:19;;;;;;;2.78;1.13;;;;;;;2.73;85.62;98374.97;5068125;28;20105;-42
2023/10/07 04:16:49;;;;;;;2.42;1.13;;;;;;;2.83;85.50;98361.03;5068109;28;20060;-42
2023/10/07 04:21:45;;;;;;;2.72;1.13;;;;;;;3.35;84.89;98347.72;5068326;28;20046;-43
2023/10/07 04:24:12;;;;;;;2.28;1.05;;;;;;;3.38;83.87;98345.06;5080848;28;20050;-41
2023/10/07 04:26:40;;;;;;;1.75;0.70;;;;;;;3.41;83.57;98329.56;5072197;28;20072;-42
2023/10/07 04:29:16;;;;;;;3.08;0.93;;;;;;;3.40;83.33;98327.91;5068111;28;20044;-42
2023/10/07 04:31:47;;;;;;;1.58;0.75;;;;;;;3.62;82.99;98323.00;5068918;28;20058;-42
2023/10/07 04:34:17;;;;;;;1.55;0.82;;;;;;;3.77;82.80;98310.53;5068298;28;20454;-42
2023/10/07 04:40:33;;;;;;;1.60;0.90;;;;;;;3.65;81.38;98266.38;5083364;28;20072;-42
2023/10/07 04:42:37;;;;;;;1.55;0.82;;;;;;;3.91;81.14;98281.88;5078565;28;20468;-41
2023/10/07 04:47:57;;;;;;;5.78;0.80;;;;;;;3.95;80.40;98288.59;5089004;28;20624;-42
2023/10/07 04:50:35;;;;;;;1.40;0.85;;;;;;;3.97;79.77;98276.56;5086551;28;20044;-43
2023/10/07 04:53:03;;;;;;;2.97;1.33;;;;;;;3.96;79.54;98271.44;5087533;28;20036;-42
2023/10/07 04:55:30;;;;;;;4.80;1.15;;;;;;;3.94;78.66;98263.78;5081975;28;20071;-41
2023/10/07 05:03:14;;;;;;;2.22;1.20;;;;;;;4.10;77.72;98259.84;5067213;28;20127;-43
2023/10/07 05:05:43;;;;;;;2.80;1.00;;;;;;;4.08;76.83;98238.47;5033186;28;20050;-42
2023/10/07 05:08:22;;;;;;;2.53;1.10;;;;;;;4.15;76.27;98232.25;5080682;28;20068;-42
2023/10/07 05:11:04;;;;;;;3.25;1.30;;;;;;;4.30;75.64;98218.06;5070231;28;20472;-41
2023/10/07 05:13:34;;;;;;;4.28;1.50;;;;;;;4.30;74.72;98218.06;5087302;28;20587;-41
2023/10/07 05:16:05;;;;;;;1.65;0.90;;;;;;;4.19;74.55;98172.09;5088557;28;20052;-43
2023/10/07 05:18:31;;;;;;;5.07;1.20;;;;;;;4.61;73.92;98215.28;5088422;28;20085;-44
2023/10/07 05:20:57;;;;;;;4.47;1.15;;;;;;;4.60;73.71;98206.75;5082528;28;20046;-45
2023/10/07 05:23:23;;;;;;;3.65;1.30;;;;;;;4.59;72.63;98202.50;5077506;28;20044;-46
2023/10/07 05:25:49;;;;;;;2.47;1.00;;;;;;;4.55;71.82;98190.59;5071688;28;20167;-44
2023/10/07 05:28:20;;;;;;;4.78;1.55;;;;;;;4.50;71.30;98192.50;5079867;28;20043;-42
2023/10/07 05:30:52;;;;;;;2.08;1.20;;;;;;;4.56;70.91;98176.00;5090662;28;20627;-44
2023/10/07 05:33:25;;;;;;;2.53;1.05;;;;;;;4.57;70.70;98159.69;5092246;28;20048;-42
2023/10/07 05:36:14;;;;;;;5.38;1.30;;;;;;;4.64;69.97;98156.84;5069349;28;20038;-42
2023/10/07 05:38:45;;;;;;;2.15;0.93;;;;;;;4.68;69.53;98160.16;5087366;28;20051;-44
2023/10/07 05:41:15;;;;;;;4.32;1.27;;;;;;;4.70;69.43;98137.78;5081513;28;20040;-43
2023/10/07 05:43:43;;;;;;;2.13;1.08;;;;;;;4.74;69.10;98131.63;5082579;28;20040;-43
2023/10/07 05:46:13;;;;;;;2.33;1.00;;;;;;;4.76;68.16;98123.84;5082853;28;20096;-43
2023/10/07 05:48:40;;;;;;;2.65;1.20;;;;;;;4.80;67.80;98113.41;5091242;28;20577;-44
2023/10/07 05:51:07;;;;;;;2.17;1.00;;;;;;;4.83;67.41;98095.25;5090187;28;20531;-42
2023/10/07 05:53:40;;;;;;;2.58;1.17;;;;;;;4.91;66.99;98094.97;5045205;28;20089;-43
2023/10/07 05:56:07;;;;;;;2.42;0.82;;;;;;;4.91;67.28;98069.22;5070172;28;20037;-42
2023/10/07 05:58:38;;;;;;;2.67;0.90;;;;;;;5.03;67.10;98079.91;5070524;28;20051;-42
2023/10/07 06:01:05;;;;;;;1.95;1.02;;;;;;;5.09;66.66;98066.78;5076028;28;20040;-42
2023/10/07 06:03:32;;;;;;;5.63;1.75;;;;;;;5.19;66.73;98048.41;5071533;28;20067;-43
2023/10/07 06:05:59;;;;;;;4.85;1.40;;;;;;;5.17;66.50;98009.00;5080576;28;20418;-43
2023/10/07 06:08:27;;;;;;;2.92;1.30;;;;;;;5.32;65.54;98027.25;5089521;28;20064;-43
2023/10/07 06:10:59;;;;;;;3.42;1.30;;;;;;;5.28;64.90;98041.16;5087884;28;20040;-43
2023/10/07 06:13:29;;;;;;;3.08;1.33;;;;;;;4.88;64.87;97944.00;5077727;28;20044;-47
2023/10/07 06:15:58;;;;;;;2.78;1.13;;;;;;;5.25;64.41;97992.31;5071934;28;20062;-43
2023/10/07 06:18:25;;;;;;;3.92;1.08;;;;;;;5.25;64.59;97988.91;5089301;28;20048;-41
2023/10/07 06:20:52;;;;;;;1.83;0.80;;;;;;;5.00;64.26;97915.22;5086608;28;20039;-42
2023/10/07 06:23:20;;;;;;;3.35;0.73;;;;;;;5.39;63.74;97960.88;5078809;28;20059;-43
2023/10/07 06:25:51;;;;;;;1.23;0.90;;;;;;;5.52;64.13;97951.72;5089845;28;20135;-46
2023/10/07 06:31:31;;;;;;;1.85;0.50;;;;;;;5.58;62.05;97940.31;5087401;28;20054;-42
2023/10/07 06:34:00;;;;;;;1.55;0.50;;;;;;;5.55;62.02;97933.53;5075636;28;20525;-42
2023/10/07 06:36:27;;;;;;;2.10;0.75;;;;;;;5.55;61.41;97933.53;5089817;28;20040;-43
2023/10/07 06:38:58;;;;;;;4.13;1.10;;;;;;;5.36;61.58;97881.94;5055842;28;20044;-43
2023/10/07 06:41:30;;;;;;;4.25;0.95;;;;;;;5.55;61.92;97913.75;5086529;28;20387;-43
2023/10/07 06:44:02;;;;;;;2.63;1.27;;;;;;;5.44;63.57;97903.06;5078124;28;20520;-42
2023/10/07 06:46:31;;;;;;;2.47;0.90;;;;;;;5.26;64.29;97885.81;5088111;28;20032;-42
2023/10/07 06:48:57;;;;;;;2.88;1.33;;;;;;;5.07;66.10;97835.97;5087703;28;20754;-42
2023/10/07 06:51:28;;;;;;;3.15;1.00;;;;;;;4.89;67.02;97808.41;5088253;28;20039;-42
2023/10/07 06:53:55;;;;;;;1.00;0.52;;;;;;;5.04;68.90;97864.41;5090303;28;20040;-42
2023/10/07 06:56:20;;;;;;;4.15;1.20;;;;;;;4.73;70.90;97845.97;5089362;28;20039;-43
2023/10/07 06:58:59;;;;;;;1.02;0.85;;;;;;;4.66;72.55;97864.22;5078007;28;20468;-42
2023/10/07 07:01:35;;;;;;;2.38;0.90;;;;;;;4.47;74.96;97840.13;5080806;28;20257;-42
2023/10/07 07:04:10;;;;;;;1.35;0.80;;;;;;;4.21;77.16;97797.44;5075839;28;20051;-44
2023/10/07 07:06:43;;;;;;;1.25;0.80;;;;;;;4.30;78.25;97814.22;5090408;28;20040;-41
2023/10/07 07:12:03;;;;;;;2.33;0.98;;;;;;;4.13;81.97;97806.34;5079456;28;20032;-43
2023/10/07 07:14:30;;;;;;;3.78;1.15;;;;;;;3.86;84.44;97756.00;5070200;28;20072;-42
2023/10/07 07:16:57;;;;;;;1.35;0.73;;;;;;;3.96;86.11;97778.72;5070713;28;20135;-43
2023/10/07 07:19:25;;;;;;;3.85;1.65;;;;;;;3.91;88.20;97774.63;5085493;28;20039;-42
2023/10/07 07:21:51;;;;;;;3.47;1.50;;;;;;;3.90;89.96;97762.69;5077141;28;20040;-42
2023/10/07 07:24:23;;;;;;;4.40;1.10;;;;;;;3.95;91.25;97759.03;5086895;28;20105;-41
2023/10/07 07:26:52;;;;;;;4.57;1.15;;;;;;;3.93;92.21;97731.69;5078168;28;20519;-41
2023/10/07 07:29:23;;;;;;;3.60;1.05;;;;;;;4.00;93.28;97722.88;5074561;28;20048;-41
2023/10/07 07:31:50;;;;;;;5.72;1.15;;;;;;;3.93;94.47;97711.13;5085977;28;20487;-43
2023/10/07 07:34:26;;;;;;;6.35;1.10;;;;;;;3.91;96.48;97700.09;5087035;28;20465;-44
2023/10/07 07:37:05;;;;;;;2.90;1.02;;;;;;;3.47;97.33;97632.44;5081750;28;20044;-44
2023/10/07 07:39:31;;;;;;;4.72;1.25;;;;;;;3.74;99.35;97687.91;5089022;28;20047;-42
2023/10/07 07:42:15;;;;;;;1.90;1.00;;;;;;;3.74;100.00;97672.47;5085553;28;20431;-45
2023/10/07 07:44:56;;;;;;;5.93;1.27;;;;;;;3.53;100.00;97627.91;5079752;28;20420;-43
2023/10/07 07:47:23;;;;;;;2.88;1.73;;;;;;;3.79;100.00;97661.13;5064180;28;20045;-42
2023/10/07 07:49:51;;;;;;;3.97;1.38;;;;;;;3.60;100.00;97613.09;5050720;28;20240;-42
2023/10/07 07:52:19;;;;;;;1.75;1.00;;;;;;;3.84;100.00;97641.22;5072124;28;20043;-42
2023/10/07 07:54:46;;;;;;;4.90;1.50;;;;;;;3.84;100.00;97632.69;5085900;28;20047;-41
2023/10/07 07:57:12;;;;;;;3.97;1.40;;;;;;;3.66;100.00;97576.91;5082609;28;20032;-42
2023/10/07 07:59:38;;;;;;;2.55;1.00;;;;;;;3.84;100.00;97606.97;5072934;28;20035;-41
2023/10/07 08:02:16;;;;;;;2.78;1.48;;;;;;;3.64;100.00;97550.44;5080286;28;20040;-42
2023/10/07 08:04:48;;;;;;;3.80;1.40;;;;;;;3.97;100.00;97584.19;5083328;28;20044;-42
2023/10/07 08:07:32;;;;;;;3.33;1.50;;;;;;;3.90;100.00;97560.47;5084102;28;20078;-41
2023/10/07 08:10:03;;;;;;;4.35;1.50;;;;;;;3.97;100.00;97543.06;5085124;28;20051;-42
2023/10/07 08:12:34;;;;;;;6.25;2.10;;;;;;;4.02;100.00;97529.13;5084613;28;20032;-41
2023/10/07 08:15:21;;;;;;;1.90;1.25;;;;;;;4.07;100.00;97503.22;5084127;28;20595;-39
2023/10/07 08:17:49;;;;;;;3.55;1.30;;;;;;;3.98;100.00;97499.28;5088556;28;20066;-40
2023/10/07 08:20:15;;;;;;;5.75;1.83;;;;;;;4.03;100.00;97463.91;5084560;28;20070;-40
2023/10/07 08:22:51;;;;;;;4.55;1.70;;;;;;;4.07;100.00;97467.22;5084144;28;20043;-40
2023/10/07 08:28:18;;;;;;;5.35;2.00;;;;;;;4.06;100.00;97443.25;5077542;28;20048;-41
2023/10/07 08:30:47;;;;;;;6.22;1.95;;;;;;;4.09;100.00;97447.41;5073606;28;20096;-41
2023/10/07 08:33:24;;;;;;;5.00;2.25;;;;;;;4.06;100.00;97450.13;5075990;28;20521;-42
2023/10/07 08:35:51;;;;;;;8.02;2.92;;;;;;;4.06;100.00;97440.66;5075435;28;20698;-41
2023/10/07 08:38:29;;;;;;;6.68;2.13;;;;;;;4.03;100.00;97417.66;5084698;28;20418;-41
2023/10/07 08:41:09;;;;;;;9.02;2.63;;;;;;;4.02;100.00;97422.88;5075102;28;20101;-41
2023/10/07 08:44:01;;;;;;;14.60;3.05;;;;;;;4.07;100.00;97403.78;5076622;28;20036;-40
2023/10/07 08:46:28;;;;;;;5.80;2.97;;;;;;;3.94;100.00;97381.25;5080071;28;20039;-41
2023/10/07 08:49:04;;;;;;;4.47;2.47;;;;;;;4.09;100.00;97409.66;5073088;28;20121;-40
2023/10/07 08:51:39;;;;;;;7.80;2.90;;;;;;;4.07;100.00;97390.94;5076502;28;20097;-41
2023/10/07 08:54:07;;;;;;;3.97;2.10;;;;;;;3.88;100.00;97361.78;5079452;28;20580;-42
2023/10/07 08:56:37;;;;;;;7.25;3.20;;;;;;;4.17;100.00;97384.47;5081024;28;20098;-41
2023/10/07 08:59:07;;;;;;;3.80;2.58;;;;;;;4.25;100.00;97369.50;5065318;28;20035;-42
2023/10/07 09:01:36;;;;;;;6.43;2.83;;;;;;;4.26;100.00;97355.75;5077613;28;20100;-42
2023/10/07 09:04:07;;;;;;;7.10;2.95;;;;;;;4.27;100.00;97366.88;5058488;28;20452;-41
2023/10/07 09:06:36;;;;;;;5.10;2.45;;;;;;;4.31;100.00;97340.09;5072314;28;20039;-42
2023/10/07 09:09:06;;;;;;;6.70;3.40;;;;;;;4.37;100.00;97347.53;5075539;28;20063;-42
2023/10/07 09:11:40;;;;;;;8.18;3.90;;;;;;;4.42;100.00;97334.44;5071744;28;20063;-41
2023/10/07 09:14:18;;;;;;;9.25;2.38;;;;;;;4.44;100.00;97322.38;5071632;28;20064;-42
2023/10/07 09:16:44;;;;;;;3.10;1.67;;;;;;;4.44;100.00;97305.19;5073600;28;20416;-41
2023/10/07 09:19:15;;;;;;;7.47;3.00;;;;;;;4.28;100.00;97267.41;5080226;28;20252;-41
2023/10/07 09:21:44;;;;;;;11.65;2.97;;;;;;;4.58;100.00;97297.63;5068589;28;20182;-42
2023/10/07 09:24:23;;;;;;;7.28;2.80;;;;;;;4.61;100.00;97286.34;5076348;28;20040;-41
2023/10/07 09:26:57;;;;;;;8.15;2.30;;;;;;;4.62;100.00;97281.13;5073320;28;20506;-41
2023/10/07 09:29:32;;;;;;;4.90;2.78;;;;;;;4.61;100.00;97258.88;5077908;28;20033;-42
2023/10/07 09:32:04;;;;;;;3.30;1.58;;;;;;;4.64;100.00;97257.91;5072386;28;20511;-41
2023/10/07 09:34:44;;;;;;;4.30;2.10;;;;;;;4.68;100.00;97251.69;5077229;28;20052;-43
2023/10/07 09:37:20;;;;;;;6.40;2.30;;;;;;;4.69;100.00;97225.06;5076297;28;20538;-42
2023/10/07 09:39:54;;;;;;;6.20;2.25;;;;;;;4.77;100.00;97216.94;5076420;28;20075;-41
2023/10/07 09:42:27;;;;;;;10.57;2.40;;;;;;;4.84;100.00;97210.59;5075192;28;20147;-42
2023/10/07 09:47:37;;;;;;;5.60;2.30;;;;;;;4.96;100.00;97191.94;5071416;28;20044;-43
2023/10/07 09:50:27;;;;;;;4.78;2.40;;;;;;;4.90;100.00;97192.25;5080632;28;20036;-41
2023/10/07 09:53:23;;;;;;;8.00;2.30;;;;;;;4.98;100.00;97162.63;5070082;28;20040;-41
2023/10/07 09:56:04;;;;;;;4.57;2.15;;;;;;;5.02;100.00;97160.75;5067393;28;20043;-41
2023/10/07 09:58:59;;;;;;;9.35;2.40;;;;;;;5.03;100.00;97150.34;5049499;28;20524;-42
2023/10/07 10:01:44;;;;;;;1.33;0.98;;;;;;;4.97;100.00;97142.94;5067630;28;20044;-47
2023/10/07 10:04:27;;;;;;;6.18;1.58;;;;;;;4.98;100.00;97131.72;5077071;28;20043;-43
2023/10/07 10:07:06;;;;;;;2.35;1.40;;;;;;;5.04;100.00;97125.44;5088224;28;20040;-42
2023/10/07 10:09:45;;;;;;;5.93;1.42;;;;;;;5.05;100.00;97107.34;5079114;28;20036;-43
2023/10/07 10:12:27;;;;;;;;;;;;;;;5.08;100.00;97101.16;5085658;28;20051;-43
2023/10/07 10:15:50;;;;;;;2.40;1.27;;;;;;;5.08;100.00;97096.03;5080316;28;20295;-41
2023/10/07 10:17:53;;;;;;;2.08;1.20;;;;;;;5.06;100.00;97085.81;5086314;28;20422;-42
2023/10/07 10:20:27;;;;;;;3.05;1.38;;;;;;;5.13;100.00;97071.69;5086145;28;20519;-44
2023/10/07 10:23:00;;;;;;;2.30;1.10;;;;;;;5.15;100.00;97076.75;5075769;28;20047;-42
2023/10/07 10:25:48;;;;;;;2.17;1.63;;;;;;;5.16;100.00;97060.41;5060265;28;20075;-41
2023/10/07 10:28:31;;;;;;;2.90;1.75;;;;;;;5.27;100.00;97068.38;5071816;28;20056;-43
2023/10/07 10:30:57;;;;;;;3.78;1.88;;;;;;;5.27;100.00;97041.78;5070776;28;20182;-44
2023/10/07 10:33:25;;;;;;;3.28;1.13;;;;;;;5.34;100.00;97028.47;5068381;28;20566;-43
2023/10/07 10:35:52;;;;;;;2.72;1.60;;;;;;;5.34;100.00;97010.44;5076091;28;20118;-42
2023/10/07 10:38:19;;;;;;;2.13;1.55;;;;;;;5.43;100.00;97006.53;5081935;28;20157;-43
2023/10/07 10:40:45;;;;;;;4.72;1.80;;;;;;;5.48;100.00;97002.78;5086069;28;20454;-40
2023/10/07 10:43:24;;;;;;;3.53;1.60;;;;;;;5.51;100.00;96984.56;5085472;28;20097;-42
2023/10/07 10:46:05;;;;;;;3.17;1.40;;;;;;;5.52;100.00;96965.63;5093406;28;20044;-44
2023/10/07 10:48:32;;;;;;;2.42;1.55;;;;;;;5.59;100.00;96965.25;5048758;28;20668;-42
2023/10/07 10:50:58;;;;;;;2.08;1.17;;;;;;;5.46;100.00;96941.94;5082032;28;20043;-42
2023/10/07 10:53:24;;;;;;;5.35;1.50;;;;;;;5.65;100.00;96958.00;5082335;28;20130;-42
2023/10/07 10:55:51;;;;;;;2.67;1.75;;;;;;;5.66;100.00;96946.75;5079841;28;20035;-42
2023/10/07 10:58:17;;;;;;;1.33;1.20;;;;;;;5.70;100.00;96950.00;5084599;28;20044;-42
2023/10/07 11:00:51;;;;;;;2.55;1.30;;;;;;;5.75;100.00;96927.38;5076530;28;20044;-41
2023/10/07 11:03:21;;;;;;;1.77;1.08;;;;;;;5.72;100.00;96906.91;5070108;28;20060;-42
2023/10/07 11:05:52;;;;;;;2.45;1.75;;;;;;;5.73;100.00;96912.00;5081327;28;20047;-41
2023/10/07 11:08:23;;;;;;;3.78;2.10;;;;;;;5.51;100.00;96866.03;5078734;28;20142;-41
2023/10/07 11:10:54;;;;;;;5.10;2.05;;;;;;;5.84;100.00;96913.94;5079525;28;20051;-42
2023/10/07 11:13:20;;;;;;;3.28;1.70;;;;;;;5.82;100.00;96902.88;5081088;28;20127;-40
2023/10/07 11:16:09;;;;;;;2.08;1.48;;;;;;;5.81;100.00;96881.41;5079455;28;20118;-41
2023/10/07 11:18:38;;;;;;;3.30;2.20;;;;;;;5.87;100.00;96873.34;5090560;28;20040;-40
2023/10/07 11:21:17;;;;;;;3.17;1.63;;;;;;;5.93;100.00;96864.41;5082774;28;20391;-40
2023/10/07 11:23:49;;;;;;;3.30;2.08;;;;;;;6.00;100.00;96850.25;5080119;28;20048;-40
2023/10/07 11:26:17;;;;;;;2.33;1.50;;;;;;;6.03;100.00;96846.63;5062515;28;20040;-42
2023/10/07 11:28:43;;;;;;;2.85;1.45;;;;;;;6.03;100.00;96829.41;5068662;28;20132;-42
2023/10/07 11:31:10;;;;;;;4.43;2.00;;;;;;;6.10;100.00;96832.44;5069688;28;20419;-41
2023/10/07 11:33:36;;;;;;;2.47;1.67;;;;;;;6.17;100.00;96832.00;5078727;28;20047;-42
2023/10/07 11:36:03;;;;;;;2.53;1.90;;;;;;;6.21;100.00;96807.66;5078603;28;20043;-41
2023/10/07 11:38:29;;;;;;;4.80;1.50;;;;;;;6.28;100.00;96808.09;5086411;28;20044;-42
2023/10/07 11:40:56;;;;;;;2.40;1.63;;;;;;;6.03;100.00;96761.53;5069440;28;20086;-41
2023/10/07 11:43:22;;;;;;;3.38;1.73;;;;;;;6.25;100.00;96779.91;5072274;28;20050;-41
2023/10/07 11:45:50;;;;;;;2.63;1.85;;;;;;;6.26;100.00;96779.81;5080812;28;20834;-41
2023/10/07 11:48:21;;;;;;;3.72;2.00;;;;;;;6.29;100.00;96766.72;5075537;28;20040;-41
2023/10/07 11:50:48;;;;;;;4.63;2.20;;;;;;;6.35;100.00;96776.63;5072055;28;20047;-41
2023/10/07 11:53:14;;;;;;;2.97;1.73;;;;;;;6.36;100.00;96769.72;5070408;28;20336;-40
2023/10/07 11:55:40;;;;;;;3.60;2.42;;;;;;;6.38;100.00;96762.72;5069518;28;20132;-41
2023/10/07 11:58:07;;;;;;;4.53;2.13;;;;;;;6.46;100.00;96760.47;5077273;28;20071;-40
2023/10/07 12:00:34;;;;;;;4.32;2.38;;;;;;;6.48;100.00;96750.06;5077015;28;20051;-41
2023/10/07 12:03:07;;;;;;;4.30;2.80;;;;;;;6.49;100.00;96746.56;5071158;28;20051;-41
2023/10/07 12:05:37;;;;;;;5.15;2.50;;;;;;;6.53;100.00;96740.28;5076243;28;20048;-40
2023/10/07 12:08:04;;;;;;;4.10;2.83;;;;;;;6.58;100.00;96718.41;5071396;28;20665;-40
2023/10/07 12:10:33;;;;;;;3.50;2.63;;;;;;;6.42;100.00;96694.53;5080425;28;20065;-42
2023/10/07 12:13:03;;;;;;;10.23;5.38;;;;;;;6.66;100.00;96700.63;5077824;28;20150;-42
2023/10/07 12:15:29;;;;;;;4.60;2.35;;;;;;;6.67;100.00;96696.31;5076877;28;20046;-41
2023/10/07 12:17:56;;;;;;;4.47;2.53;;;;;;;6.67;100.00;96691.16;5052070;28;20132;-43
2023/10/07 12:20:22;;;;;;;6.22;2.85;;;;;;;6.69;100.00;96668.66;5081862;28;20047;-41
2023/10/07 12:22:48;;;;;;;6.40;3.05;;;;;;;6.73;100.00;96657.19;5077083;28;20039;-49
2023/10/07 12:25:16;;;;;;;6.80;3.80;;;;;;;6.79;100.00;96656.78;5061000;28;20067;-43
2023/10/07 12:27:43;;;;;;;3.78;2.17;;;;;;;6.85;100.00;96658.13;5075947;28;20514;-41
2023/10/07 12:30:11;;;;;;;6.55;3.28;;;;;;;6.89;100.00;96638.91;5067874;28;20085;-41
2023/10/07 12:32:39;;;;;;;6.57;2.95;;;;;;;6.98;100.00;96636.50;5075150;28;20029;-40
2023/10/07 12:35:06;;;;;;;6.50;3.28;;;;;;;6.77;100.00;96594.91;5086082;28;20036;-40
2023/10/07 12:37:32;;;;;;;3.92;2.15;;;;;;;6.97;100.00;96609.03;5072660;28;20048;-42
2023/10/07 12:39:58;;;;;;;6.82;2.72;;;;;;;6.97;100.00;96611.59;5080698;28;20434;-40
2023/10/07 12:42:25;;;;;;;7.43;3.30;;;;;;;7.01;100.00;96610.50;5070328;28;20071;-41
2023/10/07 12:44:52;;;;;;;7.32;3.30;;;;;;;7.07;100.00;96601.47;5075126;28;20044;-40
2023/10/07 12:47:18;;;;;;;8.43;3.03;;;;;;;7.11;100.00;96588.25;5077077;28;20040;-41
2023/10/07 12:49:45;;;;;;;11.57;3.22;;;;;;;7.17;100.00;96574.88;5067567;28;20044;-41
2023/10/07 12:52:14;;;;;;;5.00;2.85;;;;;;;7.15;100.00;96574.19;5077229;28;20067;-41
2023/10/07 12:54:44;;;;;;;5.22;2.55;;;;;;;7.17;100.00;96563.75;5078433;28;20101;-41
2023/10/07 12:57:15;;;;;;;4.53;2.72;;;;;;;7.20;100.00;96553.19;5070408;28;20535;-41
2023/10/07 12:59:42;;;;;;;6.90;2.90;;;;;;;7.27;100.00;96551.00;5075289;28;20063;-49
2023/10/07 13:02:09;;;;;;;4.28;2.42;;;;;;;7.26;100.00;96539.03;5046924;28;20036;-41
2023/10/07 13:04:35;;;;;;;5.53;2.88;;;;;;;7.30;100.00;96530.94;5075390;28;20048;-43
2023/10/07 13:07:03;;;;;;;4.20;2.33;;;;;;;7.37;100.00;96526.16;5088023;28;20113;-41